createdAt,value
2023-03-11T00:12:26.004Z,0.07
2023-03-11T00:27:26.177Z,0.05
2023-03-11T00:42:32.047Z,0.02
2023-03-11T00:57:25.990Z,0.07
2023-03-11T01:12:25.891Z,0.87
2023-03-11T01:27:26.764Z,3.53
2023-03-11T01:42:26.166Z,0.16
2023-03-11T02:12:26.956Z,0.52
2023-03-11T02:42:25.906Z,1.45
2023-03-11T02:57:26.090Z,2.53
2023-03-11T03:27:26.277Z,1.5
2023-03-11T03:42:26.362Z,1.68
2023-03-11T03:57:26.049Z,1.58
2023-03-11T04:12:26.681Z,0.83
2023-03-11T07:12:26.478Z,9.26
2023-03-11T10:27:27.688Z,9.31
2023-03-11T12:12:32.123Z,8.45
2023-03-11T12:27:31.258Z,8.48
2023-03-11T12:42:25.819Z,9.13
2023-03-11T13:12:26.668Z,19.23
2023-03-11T13:27:26.423Z,14.09
2023-03-11T13:42:28.096Z,14.78
2023-03-11T13:57:25.819Z,13.99
2023-03-11T14:12:25.783Z,13.55
2023-03-11T14:27:25.982Z,12.04
2023-03-11T14:42:25.588Z,12.84
2023-03-11T14:57:30.242Z,11.83
2023-03-11T15:27:29.813Z,19.37
2023-03-11T15:42:25.795Z,16.2
2023-03-11T15:57:26.659Z,21.5
2023-03-11T16:27:26.198Z,14.79
2023-03-11T16:42:25.784Z,20.39
2023-03-11T16:57:26.414Z,49.23
2023-03-11T17:12:26.320Z,40.57
2023-03-11T17:27:26.729Z,48.57
2023-03-11T17:42:32.365Z,44.63
2023-03-11T17:57:33.609Z,36.95
2023-03-11T18:12:33.269Z,29.47
2023-03-11T18:27:27.624Z,22.87
2023-03-11T18:42:33.815Z,26.81
2023-03-11T18:57:27.667Z,15.63
2023-03-11T19:12:34.354Z,34.21
2023-03-11T19:27:26.648Z,23.29
2023-03-11T19:57:33.499Z,16.81
2023-03-11T20:12:55.938Z,14.63
2023-03-11T20:27:34.418Z,11.98
2023-03-11T21:12:36.927Z,12.56
2023-03-11T21:27:38.232Z,11.76
2023-03-11T21:42:26.911Z,16.3
2023-03-11T22:27:26.323Z,17.41
2023-03-11T22:42:26.767Z,10.29
2023-03-11T22:57:27.199Z,9.8
2023-03-11T23:27:26.534Z,11.5
2023-03-11T23:42:26.451Z,11.45
2023-03-11T23:57:26.824Z,12.29
